sensor_id;sensor_type;location;lat;lon;timestamp;temperature;humidity
7762;DHT22;3925;48.636;9.516;2023-07-29T00:01:12;16.90;99.90
7762;DHT22;3925;48.636;9.516;2023-07-29T00:03:39;16.90;99.90
7762;DHT22;3925;48.636;9.516;2023-07-29T00:06:06;16.80;99.90
7762;DHT22;3925;48.636;9.516;2023-07-29T00:08:33;16.80;99.90
7762;DHT22;3925;48.636;9.516;2023-07-29T00:11:01;16.80;99.90
7762;DHT22;3925;48.636;9.516;2023-07-29T00:13:28;16.80;99.90
7762;DHT22;3925;48.636;9.516;2023-07-29T00:15:55;16.80;99.90
7762;DHT22;3925;48.636;9.516;2023-07-29T00:18:22;16.80;99.90
7762;DHT22;3925;48.636;9.516;2023-07-29T00:20:50;16.80;99.90
7762;DHT22;3925;48.636;9.516;2023-07-29T00:23:23;16.90;99.90
7762;DHT22;3925;48.636;9.516;2023-07-29T00:25:58;16.80;99.90
7762;DHT22;3925;48.636;9.516;2023-07-29T00:28:26;16.80;99.90
7762;DHT22;3925;48.636;9.516;2023-07-29T00:30:53;16.80;99.90
7762;DHT22;3925;48.636;9.516;2023-07-29T00:33:21;16.90;99.90
7762;DHT22;3925;48.636;9.516;2023-07-29T00:35:48;16.90;99.90
7762;DHT22;3925;48.636;9.516;2023-07-29T00:38:15;17.00;99.90
7762;DHT22;3925;48.636;9.516;2023-07-29T00:40:41;17.10;99.90
7762;DHT22;3925;48.636;9.516;2023-07-29T00:43:09;17.20;99.90
7762;DHT22;3925;48.636;9.516;2023-07-29T00:45:37;17.20;99.90
7762;DHT22;3925;48.636;9.516;2023-07-29T00:48:05;17.40;99.90
7762;DHT22;3925;48.636;9.516;2023-07-29T00:50:32;17.50;99.90
7762;DHT22;3925;48.636;9.516;2023-07-29T00:52:59;17.50;99.90
7762;DHT22;3925;48.636;9.516;2023-07-29T00:55:26;17.50;99.90
7762;DHT22;3925;48.636;9.516;2023-07-29T00:57:54;17.50;99.90
7762;DHT22;3925;48.636;9.516;2023-07-29T01:00:22;17.60;99.90
7762;DHT22;3925;48.636;9.516;2023-07-29T01:02:52;17.50;99.90
7762;DHT22;3925;48.636;9.516;2023-07-29T01:05:20;17.60;99.90
7762;DHT22;3925;48.636;9.516;2023-07-29T01:07:50;17.60;99.90
7762;DHT22;3925;48.636;9.516;2023-07-29T01:10:30;17.60;99.90
7762;DHT22;3925;48.636;9.516;2023-07-29T01:13:05;17.70;99.90
7762;DHT22;3925;48.636;9.516;2023-07-29T01:15:36;17.70;99.90
7762;DHT22;3925;48.636;9.516;2023-07-29T01:18:12;17.70;99.90
7762;DHT22;3925;48.636;9.516;2023-07-29T01:20:44;17.70;99.90
7762;DHT22;3925;48.636;9.516;2023-07-29T01:23:12;17.80;99.90
7762;DHT22;3925;48.636;9.516;2023-07-29T01:25:41;17.70;99.90
7762;DHT22;3925;48.636;9.516;2023-07-29T01:28:08;17.70;99.90
7762;DHT22;3925;48.636;9.516;2023-07-29T01:30:39;17.70;99.90
7762;DHT22;3925;48.636;9.516;2023-07-29T01:33:13;17.60;99.90
7762;DHT22;3925;48.636;9.516;2023-07-29T01:35:44;17.50;99.90
7762;DHT22;3925;48.636;9.516;2023-07-29T01:38:17;17.50;99.90
7762;DHT22;3925;48.636;9.516;2023-07-29T01:40:46;17.50;99.90
7762;DHT22;3925;48.636;9.516;2023-07-29T01:43:13;17.50;99.90
7762;DHT22;3925;48.636;9.516;2023-07-29T01:45:41;17.60;99.90
7762;DHT22;3925;48.636;9.516;2023-07-29T01:48:08;17.60;99.90
7762;DHT22;3925;48.636;9.516;2023-07-29T01:50:35;17.70;99.90
7762;DHT22;3925;48.636;9.516;2023-07-29T01:53:02;17.70;99.90
7762;DHT22;3925;48.636;9.516;2023-07-29T01:55:29;17.80;99.90
7762;DHT22;3925;48.636;9.516;2023-07-29T01:57:57;17.90;99.90
7762;DHT22;3925;48.636;9.516;2023-07-29T02:00:24;17.90;99.90
7762;DHT22;3925;48.636;9.516;2023-07-29T02:02:51;17.80;99.90
7762;DHT22;3925;48.636;9.516;2023-07-29T02:05:18;17.80;99.90
7762;DHT22;3925;48.636;9.516;2023-07-29T02:07:45;17.90;99.90
7762;DHT22;3925;48.636;9.516;2023-07-29T02:10:12;17.80;99.90
7762;DHT22;3925;48.636;9.516;2023-07-29T02:12:39;17.80;99.90
7762;DHT22;3925;48.636;9.516;2023-07-29T02:15:08;17.80;99.90
7762;DHT22;3925;48.636;9.516;2023-07-29T02:17:36;17.80;99.90
7762;DHT22;3925;48.636;9.516;2023-07-29T02:20:03;17.90;99.90
7762;DHT22;3925;48.636;9.516;2023-07-29T02:22:31;17.90;99.90
7762;DHT22;3925;48.636;9.516;2023-07-29T02:24:58;17.90;99.90
7762;DHT22;3925;48.636;9.516;2023-07-29T02:27:24;17.90;99.90
7762;DHT22;3925;48.636;9.516;2023-07-29T02:29:52;17.90;99.90
7762;DHT22;3925;48.636;9.516;2023-07-29T02:32:20;18.00;99.90
7762;DHT22;3925;48.636;9.516;2023-07-29T02:34:48;17.90;99.90
7762;DHT22;3925;48.636;9.516;2023-07-29T02:37:15;17.90;99.90
7762;DHT22;3925;48.636;9.516;2023-07-29T02:39:42;18.00;99.90
7762;DHT22;3925;48.636;9.516;2023-07-29T02:42:08;18.00;99.90
7762;DHT22;3925;48.636;9.516;2023-07-29T02:44:35;18.00;99.90
7762;DHT22;3925;48.636;9.516;2023-07-29T02:47:03;18.00;99.90
7762;DHT22;3925;48.636;9.516;2023-07-29T02:49:31;18.00;99.90
7762;DHT22;3925;48.636;9.516;2023-07-29T02:51:58;18.00;99.90
7762;DHT22;3925;48.636;9.516;2023-07-29T02:54:24;18.00;99.90
7762;DHT22;3925;48.636;9.516;2023-07-29T02:56:51;18.00;99.90
7762;DHT22;3925;48.636;9.516;2023-07-29T02:59:18;18.00;99.90
7762;DHT22;3925;48.636;9.516;2023-07-29T03:01:45;18.00;99.90
7762;DHT22;3925;48.636;9.516;2023-07-29T03:04:12;18.00;99.90
7762;DHT22;3925;48.636;9.516;2023-07-29T03:06:40;18.00;99.90
7762;DHT22;3925;48.636;9.516;2023-07-29T03:09:08;18.00;99.90
7762;DHT22;3925;48.636;9.516;2023-07-29T03:11:35;18.00;99.90
7762;DHT22;3925;48.636;9.516;2023-07-29T03:14:02;18.10;99.90
7762;DHT22;3925;48.636;9.516;2023-07-29T03:16:28;18.10;99.90
7762;DHT22;3925;48.636;9.516;2023-07-29T03:18:55;18.20;99.90
7762;DHT22;3925;48.636;9.516;2023-07-29T03:21:23;18.20;99.90
7762;DHT22;3925;48.636;9.516;2023-07-29T03:23:51;18.20;99.90
7762;DHT22;3925;48.636;9.516;2023-07-29T03:26:18;18.20;99.90
7762;DHT22;3925;48.636;9.516;2023-07-29T03:28:45;18.30;99.90
7762;DHT22;3925;48.636;9.516;2023-07-29T03:31:12;18.30;99.90
7762;DHT22;3925;48.636;9.516;2023-07-29T03:33:38;18.30;99.90
7762;DHT22;3925;48.636;9.516;2023-07-29T03:36:05;18.30;99.90
7762;DHT22;3925;48.636;9.516;2023-07-29T03:38:32;18.30;99.90
7762;DHT22;3925;48.636;9.516;2023-07-29T03:41:02;18.10;99.90
7762;DHT22;3925;48.636;9.516;2023-07-29T03:43:28;18.10;99.90
7762;DHT22;3925;48.636;9.516;2023-07-29T03:45:55;18.10;99.90
7762;DHT22;3925;48.636;9.516;2023-07-29T03:48:22;18.10;99.90
7762;DHT22;3925;48.636;9.516;2023-07-29T03:50:49;18.20;99.90
7762;DHT22;3925;48.636;9.516;2023-07-29T03:53:16;18.10;99.90
7762;DHT22;3925;48.636;9.516;2023-07-29T03:55:42;18.10;99.90
7762;DHT22;3925;48.636;9.516;2023-07-29T03:58:11;18.10;99.90
7762;DHT22;3925;48.636;9.516;2023-07-29T04:00:38;18.10;99.90
7762;DHT22;3925;48.636;9.516;2023-07-29T04:03:05;18.10;99.90
7762;DHT22;3925;48.636;9.516;2023-07-29T04:05:32;18.10;99.90
7762;DHT22;3925;48.636;9.516;2023-07-29T04:07:58;18.20;99.90
7762;DHT22;3925;48.636;9.516;2023-07-29T04:10:25;18.20;99.90
7762;DHT22;3925;48.636;9.516;2023-07-29T04:12:52;18.10;99.90
7762;DHT22;3925;48.636;9.516;2023-07-29T04:15:20;18.10;99.90
7762;DHT22;3925;48.636;9.516;2023-07-29T04:17:47;18.00;99.90
7762;DHT22;3925;48.636;9.516;2023-07-29T04:20:14;18.00;99.90
7762;DHT22;3925;48.636;9.516;2023-07-29T04:22:41;17.90;99.90
7762;DHT22;3925;48.636;9.516;2023-07-29T04:25:08;18.00;99.90
7762;DHT22;3925;48.636;9.516;2023-07-29T04:27:35;17.90;99.90
7762;DHT22;3925;48.636;9.516;2023-07-29T04:30:02;17.90;99.90
7762;DHT22;3925;48.636;9.516;2023-07-29T04:32:30;17.90;99.90
7762;DHT22;3925;48.636;9.516;2023-07-29T04:34:57;18.00;99.90
7762;DHT22;3925;48.636;9.516;2023-07-29T04:37:24;18.00;99.90
7762;DHT22;3925;48.636;9.516;2023-07-29T04:39:50;18.10;99.90
7762;DHT22;3925;48.636;9.516;2023-07-29T04:42:17;18.10;99.90
7762;DHT22;3925;48.636;9.516;2023-07-29T04:44:44;18.20;99.90
7762;DHT22;3925;48.636;9.516;2023-07-29T04:47:11;18.20;99.90
7762;DHT22;3925;48.636;9.516;2023-07-29T04:49:39;18.30;99.90
7762;DHT22;3925;48.636;9.516;2023-07-29T04:52:06;18.10;99.90
7762;DHT22;3925;48.636;9.516;2023-07-29T04:54:33;18.30;99.90
7762;DHT22;3925;48.636;9.516;2023-07-29T04:57:00;18.50;99.90
7762;DHT22;3925;48.636;9.516;2023-07-29T04:59:27;18.70;99.90
7762;DHT22;3925;48.636;9.516;2023-07-29T05:01:54;18.80;99.90
7762;DHT22;3925;48.636;9.516;2023-07-29T05:04:20;19.00;99.90
7762;DHT22;3925;48.636;9.516;2023-07-29T05:06:49;19.20;99.90
7762;DHT22;3925;48.636;9.516;2023-07-29T05:09:17;19.40;99.90
7762;DHT22;3925;48.636;9.516;2023-07-29T05:11:45;19.50;99.90
7762;DHT22;3925;48.636;9.516;2023-07-29T05:14:13;19.50;99.90
7762;DHT22;3925;48.636;9.516;2023-07-29T05:16:40;19.40;99.90
7762;DHT22;3925;48.636;9.516;2023-07-29T05:19:07;19.30;99.90
7762;DHT22;3925;48.636;9.516;2023-07-29T05:21:34;19.20;99.90
7762;DHT22;3925;48.636;9.516;2023-07-29T05:24:03;19.10;99.90
7762;DHT22;3925;48.636;9.516;2023-07-29T05:26:31;19.00;99.90
7762;DHT22;3925;48.636;9.516;2023-07-29T05:28:58;18.90;99.90
7762;DHT22;3925;48.636;9.516;2023-07-29T05:31:24;18.80;99.90
7762;DHT22;3925;48.636;9.516;2023-07-29T05:33:51;18.80;99.90
7762;DHT22;3925;48.636;9.516;2023-07-29T05:36:18;18.70;99.90
7762;DHT22;3925;48.636;9.516;2023-07-29T05:38:45;18.40;99.90
7762;DHT22;3925;48.636;9.516;2023-07-29T05:41:20;18.30;99.90
7762;DHT22;3925;48.636;9.516;2023-07-29T05:43:48;18.10;99.90
7762;DHT22;3925;48.636;9.516;2023-07-29T05:46:16;18.10;99.90
7762;DHT22;3925;48.636;9.516;2023-07-29T05:48:45;18.00;99.90
7762;DHT22;3925;48.636;9.516;2023-07-29T05:51:11;18.00;99.90
7762;DHT22;3925;48.636;9.516;2023-07-29T05:53:38;17.80;99.90
7762;DHT22;3925;48.636;9.516;2023-07-29T05:56:05;17.80;99.90
7762;DHT22;3925;48.636;9.516;2023-07-29T05:58:33;17.80;99.90
7762;DHT22;3925;48.636;9.516;2023-07-29T06:01:00;17.90;99.90
7762;DHT22;3925;48.636;9.516;2023-07-29T06:03:27;17.90;99.90
7762;DHT22;3925;48.636;9.516;2023-07-29T06:05:54;17.90;99.90
7762;DHT22;3925;48.636;9.516;2023-07-29T06:08:21;18.20;99.90
7762;DHT22;3925;48.636;9.516;2023-07-29T06:10:48;18.60;99.90
7762;DHT22;3925;48.636;9.516;2023-07-29T06:13:14;20.70;99.90
7762;DHT22;3925;48.636;9.516;2023-07-29T06:15:43;24.10;99.90
7762;DHT22;3925;48.636;9.516;2023-07-29T06:18:10;24.60;99.90
7762;DHT22;3925;48.636;9.516;2023-07-29T06:20:37;24.50;99.90
7762;DHT22;3925;48.636;9.516;2023-07-29T06:23:04;24.10;99.90
7762;DHT22;3925;48.636;9.516;2023-07-29T06:25:30;23.80;99.90
7762;DHT22;3925;48.636;9.516;2023-07-29T06:27:58;24.30;99.90
7762;DHT22;3925;48.636;9.516;2023-07-29T06:30:24;26.70;99.90
7762;DHT22;3925;48.636;9.516;2023-07-29T06:32:53;28.30;99.90
7762;DHT22;3925;48.636;9.516;2023-07-29T06:35:20;31.20;99.90
7762;DHT22;3925;48.636;9.516;2023-07-29T06:37:47;31.10;98.00
7762;DHT22;3925;48.636;9.516;2023-07-29T06:40:14;30.10;98.10
7762;DHT22;3925;48.636;9.516;2023-07-29T06:42:40;28.70;99.90
7762;DHT22;3925;48.636;9.516;2023-07-29T06:45:08;27.80;99.90
7762;DHT22;3925;48.636;9.516;2023-07-29T06:47:35;27.00;99.90
7762;DHT22;3925;48.636;9.516;2023-07-29T06:50:04;26.40;99.90
7762;DHT22;3925;48.636;9.516;2023-07-29T06:52:31;26.10;99.90
7762;DHT22;3925;48.636;9.516;2023-07-29T06:54:58;26.60;99.90
7762;DHT22;3925;48.636;9.516;2023-07-29T06:57:24;26.50;99.90
7762;DHT22;3925;48.636;9.516;2023-07-29T06:59:51;26.10;99.90
7762;DHT22;3925;48.636;9.516;2023-07-29T07:02:18;25.60;99.90
7762;DHT22;3925;48.636;9.516;2023-07-29T07:04:45;25.10;99.90
7762;DHT22;3925;48.636;9.516;2023-07-29T07:07:13;24.70;99.90
7762;DHT22;3925;48.636;9.516;2023-07-29T07:09:40;24.30;99.90
7762;DHT22;3925;48.636;9.516;2023-07-29T07:12:07;23.80;99.90
7762;DHT22;3925;48.636;9.516;2023-07-29T07:14:34;23.40;99.90
7762;DHT22;3925;48.636;9.516;2023-07-29T07:17:03;23.00;99.90
7762;DHT22;3925;48.636;9.516;2023-07-29T07:19:29;22.70;99.90
7762;DHT22;3925;48.636;9.516;2023-07-29T07:21:56;22.40;99.90
7762;DHT22;3925;48.636;9.516;2023-07-29T07:24:24;22.00;99.90
7762;DHT22;3925;48.636;9.516;2023-07-29T07:26:51;21.50;99.90
7762;DHT22;3925;48.636;9.516;2023-07-29T07:29:18;20.60;99.90
7762;DHT22;3925;48.636;9.516;2023-07-29T07:31:50;19.40;99.90
7762;DHT22;3925;48.636;9.516;2023-07-29T07:34:18;18.90;99.90
7762;DHT22;3925;48.636;9.516;2023-07-29T07:36:44;18.50;99.90
7762;DHT22;3925;48.636;9.516;2023-07-29T07:39:11;18.40;99.90
7762;DHT22;3925;48.636;9.516;2023-07-29T07:41:40;18.50;99.90
7762;DHT22;3925;48.636;9.516;2023-07-29T07:44:07;18.60;99.90
7762;DHT22;3925;48.636;9.516;2023-07-29T07:46:34;18.70;99.90
7762;DHT22;3925;48.636;9.516;2023-07-29T07:49:01;18.90;99.90
7762;DHT22;3925;48.636;9.516;2023-07-29T07:51:28;19.10;99.90
7762;DHT22;3925;48.636;9.516;2023-07-29T07:53:54;19.20;99.90
7762;DHT22;3925;48.636;9.516;2023-07-29T07:56:21;19.30;99.90
7762;DHT22;3925;48.636;9.516;2023-07-29T07:58:49;19.40;99.90
7762;DHT22;3925;48.636;9.516;2023-07-29T08:01:16;19.50;99.90
7762;DHT22;3925;48.636;9.516;2023-07-29T08:03:43;19.80;99.90
7762;DHT22;3925;48.636;9.516;2023-07-29T08:06:10;20.10;99.90
7762;DHT22;3925;48.636;9.516;2023-07-29T08:08:37;20.40;99.90
7762;DHT22;3925;48.636;9.516;2023-07-29T08:11:03;20.70;99.90
7762;DHT22;3925;48.636;9.516;2023-07-29T08:13:30;20.90;99.90
7762;DHT22;3925;48.636;9.516;2023-07-29T08:15:58;20.90;99.90
7762;DHT22;3925;48.636;9.516;2023-07-29T08:18:25;21.00;99.90
7762;DHT22;3925;48.636;9.516;2023-07-29T08:20:53;21.10;99.90
7762;DHT22;3925;48.636;9.516;2023-07-29T08:23:21;21.20;99.90
7762;DHT22;3925;48.636;9.516;2023-07-29T08:25:52;21.40;99.90
7762;DHT22;3925;48.636;9.516;2023-07-29T08:28:19;21.70;99.90
7762;DHT22;3925;48.636;9.516;2023-07-29T08:30:46;21.90;99.90
7762;DHT22;3925;48.636;9.516;2023-07-29T08:33:14;22.30;99.90
7762;DHT22;3925;48.636;9.516;2023-07-29T08:35:41;22.70;99.90
7762;DHT22;3925;48.636;9.516;2023-07-29T08:38:08;22.10;99.90
7762;DHT22;3925;48.636;9.516;2023-07-29T08:40:38;22.40;99.90
7762;DHT22;3925;48.636;9.516;2023-07-29T08:43:08;22.80;99.90
7762;DHT22;3925;48.636;9.516;2023-07-29T08:45:36;22.80;99.90
7762;DHT22;3925;48.636;9.516;2023-07-29T08:48:07;22.80;99.90
7762;DHT22;3925;48.636;9.516;2023-07-29T08:50:37;22.70;99.90
7762;DHT22;3925;48.636;9.516;2023-07-29T08:53:04;22.60;99.90
7762;DHT22;3925;48.636;9.516;2023-07-29T08:55:32;22.30;99.90
7762;DHT22;3925;48.636;9.516;2023-07-29T08:57:59;22.20;99.90
7762;DHT22;3925;48.636;9.516;2023-07-29T09:00:27;22.00;99.90
7762;DHT22;3925;48.636;9.516;2023-07-29T09:02:54;21.70;99.90
7762;DHT22;3925;48.636;9.516;2023-07-29T09:05:21;21.50;99.90
7762;DHT22;3925;48.636;9.516;2023-07-29T09:07:51;21.70;99.90
7762;DHT22;3925;48.636;9.516;2023-07-29T09:10:21;21.80;99.90
7762;DHT22;3925;48.636;9.516;2023-07-29T09:12:49;22.00;99.90
7762;DHT22;3925;48.636;9.516;2023-07-29T09:15:27;22.00;99.90
7762;DHT22;3925;48.636;9.516;2023-07-29T09:17:55;22.10;99.90
7762;DHT22;3925;48.636;9.516;2023-07-29T09:20:25;21.70;99.90
7762;DHT22;3925;48.636;9.516;2023-07-29T09:22:56;22.00;99.90
7762;DHT22;3925;48.636;9.516;2023-07-29T09:25:24;22.50;99.90
7762;DHT22;3925;48.636;9.516;2023-07-29T09:27:51;22.80;99.90
7762;DHT22;3925;48.636;9.516;2023-07-29T09:30:18;23.20;99.90
7762;DHT22;3925;48.636;9.516;2023-07-29T09:32:45;23.40;99.90
7762;DHT22;3925;48.636;9.516;2023-07-29T09:35:13;24.10;99.90
7762;DHT22;3925;48.636;9.516;2023-07-29T09:37:41;26.60;99.90
7762;DHT22;3925;48.636;9.516;2023-07-29T09:40:14;28.40;99.90
7762;DHT22;3925;48.636;9.516;2023-07-29T09:42:48;30.10;99.90
7762;DHT22;3925;48.636;9.516;2023-07-29T09:45:20;32.00;99.90
7762;DHT22;3925;48.636;9.516;2023-07-29T09:47:47;33.20;98.10
7762;DHT22;3925;48.636;9.516;2023-07-29T09:50:15;33.80;94.50
7762;DHT22;3925;48.636;9.516;2023-07-29T09:52:42;34.10;94.70
7762;DHT22;3925;48.636;9.516;2023-07-29T09:55:12;34.40;93.50
7762;DHT22;3925;48.636;9.516;2023-07-29T09:57:39;33.80;93.10
7762;DHT22;3925;48.636;9.516;2023-07-29T10:00:07;34.30;94.10
7762;DHT22;3925;48.636;9.516;2023-07-29T10:02:37;35.50;92.20
7762;DHT22;3925;48.636;9.516;2023-07-29T10:05:06;35.70;85.70
7762;DHT22;3925;48.636;9.516;2023-07-29T10:07:33;36.20;87.70
7762;DHT22;3925;48.636;9.516;2023-07-29T10:10:02;35.00;86.00
7762;DHT22;3925;48.636;9.516;2023-07-29T10:12:32;34.10;89.70
7762;DHT22;3925;48.636;9.516;2023-07-29T10:15:00;34.00;91.40
7762;DHT22;3925;48.636;9.516;2023-07-29T10:17:27;33.30;91.70
7762;DHT22;3925;48.636;9.516;2023-07-29T10:19:56;33.50;91.80
7762;DHT22;3925;48.636;9.516;2023-07-29T10:22:25;33.60;90.70
7762;DHT22;3925;48.636;9.516;2023-07-29T10:24:55;31.70;92.80
7762;DHT22;3925;48.636;9.516;2023-07-29T10:27:24;32.50;93.00
7762;DHT22;3925;48.636;9.516;2023-07-29T10:29:55;32.90;93.00
7762;DHT22;3925;48.636;9.516;2023-07-29T10:32:25;31.90;90.90
7762;DHT22;3925;48.636;9.516;2023-07-29T10:34:53;31.90;94.20
7762;DHT22;3925;48.636;9.516;2023-07-29T10:37:21;32.90;92.60
7762;DHT22;3925;48.636;9.516;2023-07-29T10:39:53;33.40;92.20
7762;DHT22;3925;48.636;9.516;2023-07-29T10:42:20;34.30;91.80
7762;DHT22;3925;48.636;9.516;2023-07-29T10:44:52;34.00;90.60
7762;DHT22;3925;48.636;9.516;2023-07-29T10:47:22;34.40;88.30
7762;DHT22;3925;48.636;9.516;2023-07-29T10:49:51;35.00;85.00
7762;DHT22;3925;48.636;9.516;2023-07-29T10:52:30;34.90;85.10
7762;DHT22;3925;48.636;9.516;2023-07-29T10:54:58;35.80;80.90
7762;DHT22;3925;48.636;9.516;2023-07-29T10:57:32;35.90;82.20
7762;DHT22;3925;48.636;9.516;2023-07-29T11:00:02;34.80;79.00
7762;DHT22;3925;48.636;9.516;2023-07-29T11:02:31;33.90;81.10
7762;DHT22;3925;48.636;9.516;2023-07-29T11:04:59;32.40;85.10
7762;DHT22;3925;48.636;9.516;2023-07-29T11:07:26;30.90;92.40
7762;DHT22;3925;48.636;9.516;2023-07-29T11:09:58;31.30;91.80
7762;DHT22;3925;48.636;9.516;2023-07-29T11:12:39;30.90;91.20
7762;DHT22;3925;48.636;9.516;2023-07-29T11:15:20;30.10;91.80
7762;DHT22;3925;48.636;9.516;2023-07-29T11:17:49;30.10;92.70
7762;DHT22;3925;48.636;9.516;2023-07-29T11:20:16;29.90;93.20
7762;DHT22;3925;48.636;9.516;2023-07-29T11:22:44;29.10;92.60
7762;DHT22;3925;48.636;9.516;2023-07-29T11:25:12;29.10;93.20
7762;DHT22;3925;48.636;9.516;2023-07-29T11:27:39;29.50;93.60
7762;DHT22;3925;48.636;9.516;2023-07-29T11:30:08;29.50;93.40
7762;DHT22;3925;48.636;9.516;2023-07-29T11:32:38;29.10;92.70
7762;DHT22;3925;48.636;9.516;2023-07-29T11:35:07;28.40;93.60
7762;DHT22;3925;48.636;9.516;2023-07-29T11:37:36;28.60;92.70
7762;DHT22;3925;48.636;9.516;2023-07-29T11:40:03;28.70;93.60
7762;DHT22;3925;48.636;9.516;2023-07-29T11:42:32;28.80;92.70
7762;DHT22;3925;48.636;9.516;2023-07-29T11:45:00;28.70;93.20
7762;DHT22;3925;48.636;9.516;2023-07-29T11:47:27;28.30;91.10
7762;DHT22;3925;48.636;9.516;2023-07-29T11:49:58;27.60;93.60
7762;DHT22;3925;48.636;9.516;2023-07-29T11:52:26;27.30;94.80
7762;DHT22;3925;48.636;9.516;2023-07-29T11:54:53;27.70;95.50
7762;DHT22;3925;48.636;9.516;2023-07-29T11:57:21;27.90;93.00
7762;DHT22;3925;48.636;9.516;2023-07-29T11:59:47;27.50;93.60
7762;DHT22;3925;48.636;9.516;2023-07-29T12:02:16;27.50;94.10
7762;DHT22;3925;48.636;9.516;2023-07-29T12:04:45;27.70;93.40
7762;DHT22;3925;48.636;9.516;2023-07-29T12:07:16;28.10;93.70
7762;DHT22;3925;48.636;9.516;2023-07-29T12:09:43;28.60;93.50
7762;DHT22;3925;48.636;9.516;2023-07-29T12:12:10;28.90;92.40
7762;DHT22;3925;48.636;9.516;2023-07-29T12:14:37;29.10;92.90
7762;DHT22;3925;48.636;9.516;2023-07-29T12:17:06;29.10;92.70
7762;DHT22;3925;48.636;9.516;2023-07-29T12:19:33;28.70;92.10
7762;DHT22;3925;48.636;9.516;2023-07-29T12:22:01;28.20;93.10
7762;DHT22;3925;48.636;9.516;2023-07-29T12:24:29;28.30;92.80
7762;DHT22;3925;48.636;9.516;2023-07-29T12:26:56;28.10;94.80
7762;DHT22;3925;48.636;9.516;2023-07-29T12:29:23;28.60;94.30
7762;DHT22;3925;48.636;9.516;2023-07-29T12:31:57;28.50;94.10
7762;DHT22;3925;48.636;9.516;2023-07-29T12:34:25;28.40;93.70
7762;DHT22;3925;48.636;9.516;2023-07-29T12:36:52;28.50;93.60
7762;DHT22;3925;48.636;9.516;2023-07-29T12:39:22;28.20;94.80
7762;DHT22;3925;48.636;9.516;2023-07-29T12:41:51;27.70;94.80
7762;DHT22;3925;48.636;9.516;2023-07-29T12:44:18;27.80;95.60
7762;DHT22;3925;48.636;9.516;2023-07-29T12:46:45;27.90;94.60
7762;DHT22;3925;48.636;9.516;2023-07-29T12:49:12;28.20;93.80
7762;DHT22;3925;48.636;9.516;2023-07-29T12:51:39;28.10;94.90
7762;DHT22;3925;48.636;9.516;2023-07-29T12:54:06;28.10;94.90
7762;DHT22;3925;48.636;9.516;2023-07-29T12:56:33;28.20;94.40
7762;DHT22;3925;48.636;9.516;2023-07-29T12:59:02;27.90;94.90
7762;DHT22;3925;48.636;9.516;2023-07-29T13:01:29;27.80;94.70
7762;DHT22;3925;48.636;9.516;2023-07-29T13:03:56;27.40;94.60
7762;DHT22;3925;48.636;9.516;2023-07-29T13:06:23;27.20;95.70
7762;DHT22;3925;48.636;9.516;2023-07-29T13:08:50;27.30;95.20
7762;DHT22;3925;48.636;9.516;2023-07-29T13:11:17;27.40;95.70
7762;DHT22;3925;48.636;9.516;2023-07-29T13:13:44;27.70;95.90
7762;DHT22;3925;48.636;9.516;2023-07-29T13:16:13;27.40;94.80
7762;DHT22;3925;48.636;9.516;2023-07-29T13:18:40;27.50;94.70
7762;DHT22;3925;48.636;9.516;2023-07-29T13:21:07;27.50;95.00
7762;DHT22;3925;48.636;9.516;2023-07-29T13:23:34;27.30;96.30
7762;DHT22;3925;48.636;9.516;2023-07-29T13:26:01;27.60;95.30
7762;DHT22;3925;48.636;9.516;2023-07-29T13:28:27;27.80;95.70
7762;DHT22;3925;48.636;9.516;2023-07-29T13:30:54;27.90;95.20
7762;DHT22;3925;48.636;9.516;2023-07-29T13:33:22;27.70;95.20
7762;DHT22;3925;48.636;9.516;2023-07-29T13:35:49;27.60;95.70
7762;DHT22;3925;48.636;9.516;2023-07-29T13:38:16;28.10;94.70
7762;DHT22;3925;48.636;9.516;2023-07-29T13:40:45;27.80;95.70
7762;DHT22;3925;48.636;9.516;2023-07-29T13:43:12;26.80;96.50
7762;DHT22;3925;48.636;9.516;2023-07-29T13:45:39;27.00;96.80
7762;DHT22;3925;48.636;9.516;2023-07-29T13:48:06;27.10;96.60
7762;DHT22;3925;48.636;9.516;2023-07-29T13:50:34;27.50;97.30
7762;DHT22;3925;48.636;9.516;2023-07-29T13:53:01;27.80;96.70
7762;DHT22;3925;48.636;9.516;2023-07-29T13:55:28;28.10;96.90
7762;DHT22;3925;48.636;9.516;2023-07-29T13:57:55;27.60;95.70
7762;DHT22;3925;48.636;9.516;2023-07-29T14:00:22;27.70;95.20
7762;DHT22;3925;48.636;9.516;2023-07-29T14:02:49;27.90;95.50
7762;DHT22;3925;48.636;9.516;2023-07-29T14:05:16;27.80;95.00
7762;DHT22;3925;48.636;9.516;2023-07-29T14:07:44;27.50;95.80
7762;DHT22;3925;48.636;9.516;2023-07-29T14:10:11;27.80;94.90
7762;DHT22;3925;48.636;9.516;2023-07-29T14:12:37;27.60;93.80
7762;DHT22;3925;48.636;9.516;2023-07-29T14:15:05;27.70;94.10
7762;DHT22;3925;48.636;9.516;2023-07-29T14:17:32;27.60;93.00
7762;DHT22;3925;48.636;9.516;2023-07-29T14:19:59;27.70;94.90
7762;DHT22;3925;48.636;9.516;2023-07-29T14:22:26;27.30;95.30
7762;DHT22;3925;48.636;9.516;2023-07-29T14:24:54;27.70;95.70
7762;DHT22;3925;48.636;9.516;2023-07-29T14:27:21;27.60;95.20
7762;DHT22;3925;48.636;9.516;2023-07-29T14:29:48;27.80;95.00
7762;DHT22;3925;48.636;9.516;2023-07-29T14:32:15;27.60;94.70
7762;DHT22;3925;48.636;9.516;2023-07-29T14:34:42;27.60;93.10
7762;DHT22;3925;48.636;9.516;2023-07-29T14:37:09;27.10;90.90
7762;DHT22;3925;48.636;9.516;2023-07-29T14:39:36;27.00;91.10
7762;DHT22;3925;48.636;9.516;2023-07-29T14:42:05;27.20;91.40
7762;DHT22;3925;48.636;9.516;2023-07-29T14:44:33;26.90;91.80
7762;DHT22;3925;48.636;9.516;2023-07-29T14:47:00;26.60;93.00
7762;DHT22;3925;48.636;9.516;2023-07-29T14:49:27;26.80;92.90
7762;DHT22;3925;48.636;9.516;2023-07-29T14:51:54;26.80;93.50
7762;DHT22;3925;48.636;9.516;2023-07-29T14:54:21;26.70;94.40
7762;DHT22;3925;48.636;9.516;2023-07-29T14:56:50;26.70;94.20
7762;DHT22;3925;48.636;9.516;2023-07-29T14:59:18;26.30;93.80
7762;DHT22;3925;48.636;9.516;2023-07-29T15:01:45;26.30;93.80
7762;DHT22;3925;48.636;9.516;2023-07-29T15:04:12;26.30;94.40
7762;DHT22;3925;48.636;9.516;2023-07-29T15:06:39;26.20;94.60
7762;DHT22;3925;48.636;9.516;2023-07-29T15:09:05;26.40;94.10
7762;DHT22;3925;48.636;9.516;2023-07-29T15:11:33;26.50;93.50
7762;DHT22;3925;48.636;9.516;2023-07-29T15:14:00;26.30;94.40
7762;DHT22;3925;48.636;9.516;2023-07-29T15:16:30;26.20;95.20
7762;DHT22;3925;48.636;9.516;2023-07-29T15:18:59;26.30;94.70
7762;DHT22;3925;48.636;9.516;2023-07-29T15:21:26;26.70;94.80
7762;DHT22;3925;48.636;9.516;2023-07-29T15:23:53;27.00;94.40
7762;DHT22;3925;48.636;9.516;2023-07-29T15:26:20;27.10;94.10
7762;DHT22;3925;48.636;9.516;2023-07-29T15:28:47;26.80;95.20
7762;DHT22;3925;48.636;9.516;2023-07-29T15:31:14;26.40;96.20
7762;DHT22;3925;48.636;9.516;2023-07-29T15:33:42;26.70;95.90
7762;DHT22;3925;48.636;9.516;2023-07-29T15:36:10;26.40;96.40
7762;DHT22;3925;48.636;9.516;2023-07-29T15:38:36;26.10;96.50
7762;DHT22;3925;48.636;9.516;2023-07-29T15:41:03;26.20;96.40
7762;DHT22;3925;48.636;9.516;2023-07-29T15:43:30;26.00;95.70
7762;DHT22;3925;48.636;9.516;2023-07-29T15:45:57;26.20;94.60
7762;DHT22;3925;48.636;9.516;2023-07-29T15:48:24;25.90;94.90
7762;DHT22;3925;48.636;9.516;2023-07-29T15:50:52;26.00;95.20
7762;DHT22;3925;48.636;9.516;2023-07-29T15:53:19;25.90;95.00
7762;DHT22;3925;48.636;9.516;2023-07-29T15:55:46;26.00;94.90
7762;DHT22;3925;48.636;9.516;2023-07-29T15:58:13;26.00;94.60
7762;DHT22;3925;48.636;9.516;2023-07-29T16:00:40;26.10;94.70
7762;DHT22;3925;48.636;9.516;2023-07-29T16:03:07;26.20;94.40
7762;DHT22;3925;48.636;9.516;2023-07-29T16:05:34;25.80;94.80